LOKF weather

Feldkirchen Aerodrome
Feldkirchen, Carinthia, Austria

Public forecast

Using degrees Celsius for public forecast. Weather courtesy of forecast.io.

Closest aviation weather report (METAR) to Feldkirchen Aerodrome

Closest report is Klagenfurt Airport, 11.4 nm (21.2 km) ESE. Retrieved 2020/08/06 15:20 UTC (1 hour ago):

LOWK 061520Z 11005KT 050V150 9999 FEW050 26/17 Q1019 NOSIG

Closest aviation forecast (TAF) to Feldkirchen Aerodrome

Closest forecast is Klagenfurt Airport, 11.4 nm (21.2 km) ESE. Retrieved 2020/08/06 12:21 UTC (4 hours ago):

TAF LOWK 061115Z 0612/0712 VRB04KT 9999 FEW050 SCT070 TX26/0712Z TN16/0704Z TEMPO 0612/0618 08008KT FEW050 FEW050CB TEMPO 0624/0707 1200 MIFG SCT002 PROB30 TEMPO 0703/0706 0300 PRFG BKN004